Cherbourg-Maupertus Airport

Airport
ICAO code: 
LFRC
IATA Code: 
CER
Summary
ICAO Region: 
EUR
Territory: 
Location: 
, Basse-Normandie
Serving: 
Cherbourg
Elevation: 
459 ft
Coordinates: 
Aerial View: 
49° 39' 0.382" N, 1° 28' 13.012" W
Metar
Observation
LFRC 302130Z AUTO 23020G31KT 200V260 4800 DZ BR OVC006 10/09 Q1008
Station
Cherbourg / Maupertus
Date/Time
2021-11-30 21:30:00
Wind direction
230°
Wind speed
20 kts
Lowest cloud amount
overcast
Temperature
10°C
Dew point
9°C
Humidity
93%
QNH
1008 hPa
Weather condition
n/a

Runways

Designator Length Width Surface Rops
10/28 2440 45 ASP No/No
Airport map: 
Aerial View: 

SKYbrary Partners:

Safety knowledge contributed by: